Time;durP1;ratioP1;P1;durP2;ratioP2;P2;SDS_P1;SDS_P2;PMS_P1;PMS_P2;Temp;Humidity;BMP_temperature;BMP_pressure;BME280_temperature;BME280_humidity;BME280_pressure;Samples;Min_cycle;Max_cycle;Signal;HPM_P1;HPM_P2
2021/04/14 00:01:35;;;;;;;15.32;2.22;;;;;;;;;;5024023;28;21348;-47
2021/04/14 00:04:02;;;;;;;12.90;2.55;;;;;;;;;;5024083;28;20020;-45
2021/04/14 00:06:29;;;;;;;12.10;2.35;;;;;;;;;;5022325;28;20026;-45
2021/04/14 00:08:56;;;;;;;10.57;2.55;;;;;;;;;;5029880;28;20018;-42
2021/04/14 00:11:23;;;;;;;14.02;2.85;;;;;;;;;;5027187;28;20028;-42
2021/04/14 00:13:50;;;;;;;18.35;3.17;;;;;;;;;;5026890;28;20030;-41
2021/04/14 00:16:19;;;;;;;10.25;2.90;;;;;;;;;;5026182;28;20496;-40
2021/04/14 00:18:46;;;;;;;12.32;2.90;;;;;;;;;;5026458;28;20021;-43
2021/04/14 00:21:14;;;;;;;13.48;2.70;;;;;;;;;;5027988;28;20108;-44
2021/04/14 00:23:42;;;;;;;8.73;2.38;;;;;;;;;;5023130;28;20030;-43
2021/04/14 00:26:10;;;;;;;8.73;2.85;;;;;;;;;;5025318;28;20031;-44
2021/04/14 00:28:37;;;;;;;19.73;4.43;;;;;;;;;;5020062;28;20516;-44
2021/04/14 00:31:05;;;;;;;20.02;4.10;;;;;;;;;;5022954;28;20025;-43
2021/04/14 00:33:33;;;;;;;14.35;5.07;;;;;;;;;;5024074;28;20036;-42
2021/04/14 00:36:00;;;;;;;22.60;5.50;;;;;;;;;;5027750;28;20500;-43
2021/04/14 00:38:27;;;;;;;15.40;5.93;;;;;;;;;;5022480;28;20025;-43
2021/04/14 00:41:00;;;;;;;16.30;4.75;;;;;;;;;;5026539;28;20022;-49
2021/04/14 00:43:26;;;;;;;;;;;;;;;;;;5027431;28;20117;-43
2021/04/14 00:45:54;;;;;;;19.65;5.65;;;;;;;;;;5024728;28;20356;-44
2021/04/14 00:48:21;;;;;;;13.00;4.47;;;;;;;;;;5024394;28;20537;-44
2021/04/14 00:50:49;;;;;;;11.48;4.80;;;;;;;;;;5024907;28;20554;-42
2021/04/14 00:53:16;;;;;;;18.40;5.07;;;;;;;;;;5026806;28;20104;-43
2021/04/14 00:55:44;;;;;;;13.35;4.70;;;;;;;;;;5023438;28;20041;-42
2021/04/14 00:58:11;;;;;;;12.15;4.32;;;;;;;;;;5024406;28;20026;-42
2021/04/14 01:00:43;;;;;;;13.85;4.70;;;;;;;;;;5018521;28;20041;-40
2021/04/14 01:03:14;;;;;;;13.57;4.47;;;;;;;;;;5020829;28;20496;-41
2021/04/14 01:05:41;;;;;;;14.10;4.20;;;;;;;;;;5020320;28;20053;-41
2021/04/14 01:08:09;;;;;;;15.23;4.57;;;;;;;;;;5018793;28;20033;-42
2021/04/14 01:10:35;;;;;;;13.10;4.38;;;;;;;;;;5026082;28;20033;-42
2021/04/14 01:13:03;;;;;;;10.85;4.10;;;;;;;;;;5026526;28;20029;-42
2021/04/14 01:15:32;;;;;;;10.27;3.75;;;;;;;;;;5024887;28;20025;-44
2021/04/14 01:18:00;;;;;;;16.48;4.15;;;;;;;;;;5023524;28;20496;-43
2021/04/14 01:20:27;;;;;;;14.05;4.35;;;;;;;;;;5028851;28;20032;-40
2021/04/14 01:22:54;;;;;;;21.02;4.35;;;;;;;;;;5026490;28;20044;-46
2021/04/14 01:25:24;;;;;;;16.42;3.30;;;;;;;;;;5020878;28;20029;-47
2021/04/14 01:27:51;;;;;;;12.77;3.45;;;;;;;;;;5028970;28;20427;-49
2021/04/14 01:30:21;;;;;;;13.23;3.05;;;;;;;;;;5031228;28;20028;-46
2021/04/14 01:32:49;;;;;;;9.40;3.00;;;;;;;;;;5028725;28;20033;-48
2021/04/14 01:35:18;;;;;;;11.40;3.25;;;;;;;;;;5012455;28;20041;-45
2021/04/14 01:37:47;;;;;;;28.83;4.07;;;;;;;;;;5028840;28;20469;-46
2021/04/14 01:40:15;;;;;;;11.35;3.60;;;;;;;;;;5024683;28;20033;-49
2021/04/14 01:42:42;;;;;;;16.13;3.10;;;;;;;;;;5028366;28;20022;-49
2021/04/14 01:45:10;;;;;;;20.08;3.45;;;;;;;;;;5027142;28;20076;-44
2021/04/14 01:47:37;;;;;;;14.55;2.90;;;;;;;;;;5027248;28;20030;-43
2021/04/14 01:50:06;;;;;;;12.18;2.72;;;;;;;;;;5026190;28;20121;-43
2021/04/14 01:52:33;;;;;;;15.13;3.03;;;;;;;;;;5022906;28;20030;-48
2021/04/14 01:55:01;;;;;;;8.60;2.70;;;;;;;;;;5021421;28;20087;-46
2021/04/14 01:57:33;;;;;;;13.50;2.90;;;;;;;;;;5021463;28;20041;-45
2021/04/14 02:00:00;;;;;;;12.25;2.65;;;;;;;;;;5011839;28;20022;-46
2021/04/14 02:02:27;;;;;;;12.32;2.67;;;;;;;;;;5011821;28;20026;-51
2021/04/14 02:04:54;;;;;;;7.15;2.30;;;;;;;;;;5012154;28;20026;-51
2021/04/14 02:07:21;;;;;;;9.63;2.50;;;;;;;;;;5012098;28;20037;-44
2021/04/14 02:09:49;;;;;;;8.93;2.45;;;;;;;;;;5011752;28;20018;-44
2021/04/14 02:12:15;;;;;;;10.80;2.42;;;;;;;;;;5012389;28;20026;-45
2021/04/14 02:14:43;;;;;;;10.05;2.28;;;;;;;;;;5012593;28;20069;-44
2021/04/14 02:17:10;;;;;;;5.15;2.25;;;;;;;;;;5015638;28;20030;-45
2021/04/14 02:19:37;;;;;;;7.13;2.00;;;;;;;;;;5015611;28;20022;-45
2021/04/14 02:22:04;;;;;;;8.27;1.80;;;;;;;;;;5015754;28;20072;-45
2021/04/14 02:24:31;;;;;;;14.52;2.35;;;;;;;;;;5015622;28;20097;-44
2021/04/14 02:26:58;;;;;;;6.35;1.98;;;;;;;;;;5015680;28;20030;-45
2021/04/14 02:29:25;;;;;;;5.72;1.80;;;;;;;;;;5015437;28;20030;-45
2021/04/14 02:31:52;;;;;;;3.10;1.83;;;;;;;;;;5016273;28;20029;-43
2021/04/14 02:34:19;;;;;;;4.60;2.00;;;;;;;;;;5024922;28;20017;-44
2021/04/14 02:36:47;;;;;;;4.75;1.80;;;;;;;;;;5025883;28;20058;-45
2021/04/14 02:39:14;;;;;;;4.15;1.73;;;;;;;;;;5034272;28;20029;-52
2021/04/14 02:41:41;;;;;;;5.32;1.75;;;;;;;;;;5033838;28;20080;-50
2021/04/14 02:44:08;;;;;;;4.57;1.88;;;;;;;;;;5034161;28;20018;-53
2021/04/14 02:46:35;;;;;;;6.30;1.75;;;;;;;;;;5034634;28;20520;-45
2021/04/14 02:49:02;;;;;;;5.38;1.98;;;;;;;;;;5035028;28;20069;-45
2021/04/14 02:51:29;;;;;;;11.13;2.17;;;;;;;;;;5035135;28;20071;-42
2021/04/14 02:53:56;;;;;;;6.15;1.83;;;;;;;;;;5034979;28;20021;-46
2021/04/14 02:56:23;;;;;;;3.47;1.70;;;;;;;;;;5035082;28;20052;-45
2021/04/14 02:58:50;;;;;;;3.08;1.70;;;;;;;;;;5035037;28;20024;-45
2021/04/14 03:01:18;;;;;;;3.22;1.60;;;;;;;;;;5034942;28;20398;-49
2021/04/14 03:03:45;;;;;;;5.20;1.65;;;;;;;;;;5035001;28;20499;-48
2021/04/14 03:06:12;;;;;;;3.75;1.60;;;;;;;;;;5034860;28;20044;-48
2021/04/14 03:08:39;;;;;;;3.53;1.73;;;;;;;;;;5034721;28;20025;-47
2021/04/14 03:11:06;;;;;;;5.72;2.03;;;;;;;;;;5034797;28;20026;-46
2021/04/14 03:13:33;;;;;;;3.08;1.40;;;;;;;;;;5034810;28;20033;-45
2021/04/14 03:16:01;;;;;;;5.60;1.60;;;;;;;;;;5034481;28;20086;-49
2021/04/14 03:18:28;;;;;;;5.32;1.88;;;;;;;;;;5034622;28;20424;-49
2021/04/14 03:20:55;;;;;;;3.05;1.50;;;;;;;;;;5033431;28;20021;-45
2021/04/14 03:23:22;;;;;;;3.80;1.70;;;;;;;;;;5034433;28;20017;-45
2021/04/14 03:25:49;;;;;;;2.10;1.60;;;;;;;;;;5034454;28;20075;-45
2021/04/14 03:28:16;;;;;;;3.45;1.60;;;;;;;;;;5034574;28;20056;-44
2021/04/14 03:30:43;;;;;;;5.53;1.75;;;;;;;;;;5034313;28;20036;-43
2021/04/14 03:33:11;;;;;;;5.63;1.63;;;;;;;;;;5034476;28;20053;-43
2021/04/14 03:35:38;;;;;;;7.38;1.27;;;;;;;;;;5034307;28;20044;-45
2021/04/14 03:38:06;;;;;;;2.33;1.30;;;;;;;;;;5034212;28;20020;-45
2021/04/14 03:40:33;;;;;;;4.22;1.35;;;;;;;;;;5034231;28;20033;-45
2021/04/14 03:43:00;;;;;;;4.07;1.40;;;;;;;;;;5034211;28;20071;-45
2021/04/14 03:45:34;;;;;;;3.67;1.50;;;;;;;;;;5034145;28;20100;-45
2021/04/14 03:48:01;;;;;;;4.03;1.52;;;;;;;;;;5033659;28;20076;-44
2021/04/14 03:50:29;;;;;;;4.45;1.35;;;;;;;;;;5034218;28;20044;-46
2021/04/14 03:52:57;;;;;;;4.78;1.50;;;;;;;;;;5033996;28;20025;-45
2021/04/14 03:55:24;;;;;;;2.25;1.30;;;;;;;;;;5033845;28;20067;-45
2021/04/14 03:57:51;;;;;;;4.28;1.58;;;;;;;;;;5033855;28;20030;-45
2021/04/14 04:00:19;;;;;;;3.65;1.48;;;;;;;;;;5033931;28;20041;-46
2021/04/14 04:02:46;;;;;;;2.28;1.30;;;;;;;;;;5033836;28;20030;-45
2021/04/14 04:05:13;;;;;;;2.38;1.38;;;;;;;;;;5032647;28;20021;-45
2021/04/14 04:07:40;;;;;;;2.95;1.33;;;;;;;;;;5033688;28;20515;-46
2021/04/14 04:10:08;;;;;;;4.22;1.50;;;;;;;;;;5033733;28;20480;-45
2021/04/14 04:12:35;;;;;;;2.72;1.50;;;;;;;;;;5033589;28;20026;-45
2021/04/14 04:15:04;;;;;;;1.67;1.00;;;;;;;;;;5033586;28;20040;-45
2021/04/14 04:17:31;;;;;;;3.65;1.40;;;;;;;;;;5033382;28;20014;-45
2021/04/14 04:19:58;;;;;;;2.97;1.20;;;;;;;;;;5033418;28;20021;-43
2021/04/14 04:22:25;;;;;;;8.80;1.73;;;;;;;;;;5033509;28;20037;-44
2021/04/14 04:24:52;;;;;;;2.63;1.58;;;;;;;;;;5033432;28;20097;-45
2021/04/14 04:27:19;;;;;;;2.58;1.33;;;;;;;;;;5033314;28;20484;-46
2021/04/14 04:29:46;;;;;;;5.53;1.40;;;;;;;;;;5033583;28;20032;-44
2021/04/14 04:32:13;;;;;;;4.47;1.48;;;;;;;;;;5033153;28;20112;-47
2021/04/14 04:34:40;;;;;;;3.00;1.33;;;;;;;;;;5033046;28;20044;-46
2021/04/14 04:37:07;;;;;;;1.60;1.40;;;;;;;;;;5032955;28;20025;-45
2021/04/14 04:39:34;;;;;;;2.50;1.80;;;;;;;;;;5033168;28;20024;-45
2021/04/14 04:42:01;;;;;;;2.50;1.20;;;;;;;;;;5033120;28;20024;-45
2021/04/14 04:44:28;;;;;;;2.53;1.60;;;;;;;;;;5033139;28;20033;-45
2021/04/14 04:46:55;;;;;;;3.00;1.45;;;;;;;;;;5033084;28;20048;-46
2021/04/14 04:49:22;;;;;;;2.83;1.60;;;;;;;;;;5032658;28;20045;-45
2021/04/14 04:51:49;;;;;;;5.63;1.70;;;;;;;;;;5033106;28;20025;-46
2021/04/14 04:54:16;;;;;;;3.35;1.70;;;;;;;;;;5032978;28;20045;-45
2021/04/14 04:56:43;;;;;;;3.83;1.33;;;;;;;;;;5032820;28;20480;-46
2021/04/14 04:59:10;;;;;;;2.78;1.30;;;;;;;;;;5033059;28;20021;-45
2021/04/14 05:01:37;;;;;;;3.55;1.50;;;;;;;;;;5032883;28;20100;-52
2021/04/14 05:04:05;;;;;;;2.38;1.27;;;;;;;;;;5206518;23;20061;-48
2021/04/14 05:06:31;;;;;;;2.78;1.30;;;;;;;;;;5032382;28;20484;-47
2021/04/14 05:08:58;;;;;;;2.45;1.20;;;;;;;;;;5032524;28;20055;-48
2021/04/14 05:11:26;;;;;;;1.40;1.27;;;;;;;;;;5032404;28;20033;-45
2021/04/14 05:13:53;;;;;;;3.95;1.80;;;;;;;;;;5031202;28;20048;-46
2021/04/14 05:16:20;;;;;;;2.20;1.10;;;;;;;;;;5032316;28;20103;-46
2021/04/14 05:18:47;;;;;;;1.80;1.10;;;;;;;;;;5032298;28;20028;-46
2021/04/14 05:21:14;;;;;;;2.42;1.10;;;;;;;;;;5032444;28;20080;-46
2021/04/14 05:23:41;;;;;;;1.42;0.98;;;;;;;;;;5030997;28;20117;-45
2021/04/14 05:26:08;;;;;;;3.10;1.17;;;;;;;;;;5032265;28;20437;-44
2021/04/14 05:28:35;;;;;;;3.13;1.42;;;;;;;;;;5032437;28;20025;-45
2021/04/14 05:31:02;;;;;;;2.30;1.15;;;;;;;;;;5032284;28;20033;-44
2021/04/14 05:33:29;;;;;;;3.00;1.30;;;;;;;;;;5032238;28;20029;-45
2021/04/14 05:35:56;;;;;;;4.00;1.38;;;;;;;;;;5032187;28;20063;-45
2021/04/14 05:38:23;;;;;;;2.13;1.02;;;;;;;;;;5032230;28;20021;-45
2021/04/14 05:40:50;;;;;;;2.15;0.90;;;;;;;;;;5032093;28;20030;-45
2021/04/14 05:43:19;;;;;;;1.73;1.08;;;;;;;;;;5032383;28;20071;-45
2021/04/14 05:45:46;;;;;;;1.13;1.00;;;;;;;;;;5032026;28;20029;-45
2021/04/14 05:48:14;;;;;;;2.65;1.30;;;;;;;;;;5032128;28;20049;-45
2021/04/14 05:50:41;;;;;;;2.60;1.38;;;;;;;;;;5034349;28;20502;-46
2021/04/14 05:53:08;;;;;;;2.63;1.15;;;;;;;;;;5035894;28;20026;-44
2021/04/14 05:55:35;;;;;;;2.20;1.27;;;;;;;;;;5035724;28;20043;-45
2021/04/14 05:58:02;;;;;;;2.85;1.30;;;;;;;;;;5036010;28;20465;-44
2021/04/14 06:00:30;;;;;;;2.22;0.88;;;;;;;;;;5035773;28;20033;-45
2021/04/14 06:02:57;;;;;;;3.65;1.17;;;;;;;;;;5035682;28;20100;-44
2021/04/14 06:05:25;;;;;;;2.38;1.20;;;;;;;;;;5035357;28;20496;-44
2021/04/14 06:07:52;;;;;;;2.45;1.10;;;;;;;;;;5035632;28;20040;-44
2021/04/14 06:10:21;;;;;;;3.47;1.25;;;;;;;;;;5035538;28;20538;-44
2021/04/14 06:12:48;;;;;;;4.30;1.30;;;;;;;;;;5034498;28;20036;-43
2021/04/14 06:15:16;;;;;;;1.63;1.17;;;;;;;;;;5035468;28;20109;-44
2021/04/14 06:17:43;;;;;;;2.25;1.15;;;;;;;;;;5035498;28;20029;-43
2021/04/14 06:20:13;;;;;;;2.95;1.05;;;;;;;;;;5035294;28;20074;-45
2021/04/14 06:22:40;;;;;;;1.70;1.13;;;;;;;;;;5035529;28;20061;-44
2021/04/14 06:25:09;;;;;;;3.35;1.25;;;;;;;;;;5035322;28;20017;-44
2021/04/14 06:27:43;;;;;;;2.63;1.10;;;;;;;;;;5035226;28;20074;-45
2021/04/14 06:30:10;;;;;;;3.20;1.17;;;;;;;;;;5035420;28;20021;-45
2021/04/14 06:32:37;;;;;;;4.90;1.58;;;;;;;;;;5035023;28;20018;-45
2021/04/14 06:35:05;;;;;;;0.93;0.90;;;;;;;;;;5035024;28;20036;-45
2021/04/14 06:37:32;;;;;;;1.58;1.02;;;;;;;;;;5035184;28;20022;-44
2021/04/14 06:42:57;;;;;;;4.07;1.35;;;;;;;;;;5035055;28;20451;-53
2021/04/14 06:45:26;;;;;;;1.50;1.38;;;;;;;;;;5035063;28;20038;-52
2021/04/14 06:47:57;;;;;;;1.88;1.40;;;;;;;;;;5034898;28;20045;-53
2021/04/14 06:50:31;;;;;;;2.88;1.23;;;;;;;;;;5035019;28;20025;-53
2021/04/14 06:53:18;;;;;;;3.22;1.55;;;;;;;;;;5035001;28;20045;-49
2021/04/14 06:55:47;;;;;;;1.60;1.23;;;;;;;;;;5034573;28;20044;-50
2021/04/14 06:58:16;;;;;;;2.67;1.35;;;;;;;;;;5034785;28;20029;-49
2021/04/14 07:00:49;;;;;;;2.78;1.60;;;;;;;;;;5034307;28;20508;-49
2021/04/14 07:03:31;;;;;;;1.83;1.10;;;;;;;;;;5034720;28;20029;-52
2021/04/14 07:06:07;;;;;;;3.45;1.30;;;;;;;;;;5034630;28;20053;-50
2021/04/14 07:08:36;;;;;;;3.47;1.42;;;;;;;;;;5034679;28;20027;-50
2021/04/14 07:11:04;;;;;;;1.92;1.15;;;;;;;;;;5034364;28;20075;-49
2021/04/14 07:13:32;;;;;;;2.03;1.10;;;;;;;;;;5034280;28;20021;-49
2021/04/14 07:16:06;;;;;;;1.88;1.20;;;;;;;;;;5034480;28;20069;-50
2021/04/14 07:18:33;;;;;;;1.30;1.10;;;;;;;;;;5034479;28;20075;-50
2021/04/14 07:21:25;;;;;;;3.70;1.30;;;;;;;;;;5034024;28;20048;-49
2021/04/14 07:24:00;;;;;;;3.55;1.20;;;;;;;;;;5034098;28;20029;-49
2021/04/14 07:26:30;;;;;;;4.32;1.38;;;;;;;;;;5034296;28;20444;-47
2021/04/14 07:29:03;;;;;;;1.70;1.23;;;;;;;;;;5034087;28;20053;-45
2021/04/14 07:31:42;;;;;;;2.60;1.17;;;;;;;;;;5034107;28;20543;-47
2021/04/14 07:34:38;;;;;;;2.05;1.40;;;;;;;;;;5034075;28;20526;-47
2021/04/14 07:37:11;;;;;;;1.77;1.30;;;;;;;;;;5025325;28;20041;-45
2021/04/14 07:39:57;;;;;;;2.05;1.30;;;;;;;;;;5034024;28;20130;-44
2021/04/14 07:42:43;;;;;;;2.30;1.00;;;;;;;;;;5034018;28;20376;-48
2021/04/14 07:45:15;;;;;;;2.65;1.20;;;;;;;;;;5033907;28;20476;-48
2021/04/14 07:47:44;;;;;;;3.70;1.25;;;;;;;;;;5033867;28;20480;-46
2021/04/14 07:50:11;;;;;;;1.85;1.33;;;;;;;;;;5033608;28;20037;-46
2021/04/14 07:52:39;;;;;;;3.10;1.52;;;;;;;;;;5033762;28;20029;-46
2021/04/14 07:55:19;;;;;;;1.63;0.93;;;;;;;;;;5033552;28;20037;-49
2021/04/14 07:57:46;;;;;;;1.75;1.10;;;;;;;;;;5033573;28;20476;-46
2021/04/14 08:00:13;;;;;;;1.90;1.40;;;;;;;;;;5033628;28;20423;-47
2021/04/14 08:02:40;;;;;;;2.20;1.40;;;;;;;;;;5033599;28;20075;-46
2021/04/14 08:05:22;;;;;;;2.40;1.33;;;;;;;;;;5033138;28;20060;-46
2021/04/14 08:07:49;;;;;;;5.00;1.40;;;;;;;;;;5033416;28;20017;-47
2021/04/14 08:10:16;;;;;;;2.38;1.30;;;;;;;;;;5033402;28;20021;-45
2021/04/14 08:13:04;;;;;;;3.92;1.10;;;;;;;;;;5032653;28;20025;-46
2021/04/14 08:15:32;;;;;;;3.00;1.35;;;;;;;;;;5033120;28;20037;-44
2021/04/14 08:18:13;;;;;;;3.58;1.40;;;;;;;;;;5033428;28;20026;-47
2021/04/14 08:20:41;;;;;;;2.50;1.17;;;;;;;;;;5033215;28;20080;-45
2021/04/14 08:23:09;;;;;;;1.63;1.25;;;;;;;;;;5033105;28;20017;-45
2021/04/14 08:25:36;;;;;;;2.75;0.98;;;;;;;;;;5033163;28;20120;-47
2021/04/14 08:28:05;;;;;;;2.67;1.27;;;;;;;;;;5032896;28;20029;-45
2021/04/14 08:30:32;;;;;;;2.92;1.38;;;;;;;;;;5032886;28;20015;-45
2021/04/14 08:33:05;;;;;;;2.70;1.17;;;;;;;;;;5033171;28;20023;-47
2021/04/14 08:35:37;;;;;;;3.75;1.15;;;;;;;;;;5032904;28;20050;-44
2021/04/14 08:38:06;;;;;;;2.63;1.40;;;;;;;;;;5032937;28;20026;-43
2021/04/14 08:40:42;;;;;;;1.50;1.13;;;;;;;;;;5032690;28;20466;-44
2021/04/14 08:43:13;;;;;;;2.15;1.45;;;;;;;;;;5032900;28;20025;-43
2021/04/14 08:45:45;;;;;;;1.98;1.60;;;;;;;;;;5032864;28;20092;-44
2021/04/14 08:48:12;;;;;;;6.68;1.30;;;;;;;;;;5032788;28;20057;-44
2021/04/14 08:50:44;;;;;;;2.17;1.55;;;;;;;;;;5031426;28;20607;-45
2021/04/14 08:53:15;;;;;;;3.20;1.23;;;;;;;;;;5032840;28;20477;-44
2021/04/14 08:55:43;;;;;;;2.05;1.50;;;;;;;;;;5032729;28;20507;-43
2021/04/14 08:58:10;;;;;;;2.03;1.27;;;;;;;;;;5032624;28;20074;-44
2021/04/14 09:00:37;;;;;;;2.05;1.35;;;;;;;;;;5032568;28;20064;-46
2021/04/14 09:03:06;;;;;;;7.07;1.40;;;;;;;;;;5032605;28;20059;-44
2021/04/14 09:05:34;;;;;;;3.08;1.20;;;;;;;;;;5032171;28;20436;-44
2021/04/14 09:08:01;;;;;;;3.28;1.30;;;;;;;;;;5032307;28;20427;-47
2021/04/14 09:10:40;;;;;;;1.77;1.10;;;;;;;;;;5032539;28;20524;-47
2021/04/14 09:13:09;;;;;;;3.60;1.10;;;;;;;;;;5032683;28;20033;-49
2021/04/14 09:15:46;;;;;;;3.80;1.25;;;;;;;;;;5032225;28;20025;-48
2021/04/14 09:18:24;;;;;;;2.33;1.30;;;;;;;;;;5032329;28;20476;-45
2021/04/14 09:20:51;;;;;;;1.60;1.23;;;;;;;;;;5032440;28;20112;-45
2021/04/14 09:23:28;;;;;;;2.35;1.27;;;;;;;;;;5032499;28;20468;-45
2021/04/14 09:25:55;;;;;;;2.05;1.17;;;;;;;;;;5036822;28;20021;-45
2021/04/14 09:28:27;;;;;;;2.22;1.33;;;;;;;;;;5036321;28;20035;-44
2021/04/14 09:30:58;;;;;;;5.53;1.70;;;;;;;;;;5036211;28;20022;-44
2021/04/14 09:33:40;;;;;;;1.87;1.20;;;;;;;;;;5036367;28;20034;-45
2021/04/14 09:36:11;;;;;;;2.00;1.25;;;;;;;;;;5036309;28;20683;-45
2021/04/14 09:38:49;;;;;;;3.15;1.35;;;;;;;;;;5034989;28;20021;-45
2021/04/14 09:41:25;;;;;;;2.42;1.40;;;;;;;;;;5032835;28;20467;-42
2021/04/14 09:43:53;;;;;;;2.38;1.58;;;;;;;;;;5034485;28;20049;-44
2021/04/14 09:46:27;;;;;;;3.10;1.20;;;;;;;;;;5035967;28;20032;-43
2021/04/14 09:48:53;;;;;;;3.17;0.95;;;;;;;;;;5034694;28;20087;-45
2021/04/14 09:51:33;;;;;;;3.38;1.25;;;;;;;;;;5035713;28;20104;-42
2021/04/14 09:54:07;;;;;;;1.70;1.25;;;;;;;;;;5035810;28;20071;-48
2021/04/14 09:56:34;;;;;;;1.92;1.20;;;;;;;;;;5035069;28;20115;-48
2021/04/14 09:59:13;;;;;;;4.07;1.35;;;;;;;;;;5033846;28;20025;-45
2021/04/14 10:01:41;;;;;;;1.65;1.10;;;;;;;;;;5033905;28;20025;-46
2021/04/14 10:04:14;;;;;;;4.63;1.30;;;;;;;;;;5033588;28;20048;-45
2021/04/14 10:06:42;;;;;;;3.30;0.93;;;;;;;;;;5033801;28;20111;-48
2021/04/14 10:09:10;;;;;;;2.85;1.33;;;;;;;;;;5034173;28;20024;-46
2021/04/14 10:11:38;;;;;;;1.67;1.30;;;;;;;;;;5034657;28;20025;-46
2021/04/14 10:14:15;;;;;;;1.80;1.10;;;;;;;;;;5035498;28;20477;-45
2021/04/14 10:16:42;;;;;;;4.68;1.20;;;;;;;;;;5035434;28;20037;-46
2021/04/14 10:19:14;;;;;;;3.08;1.20;;;;;;;;;;5035837;28;20026;-48
2021/04/14 10:21:42;;;;;;;2.00;0.93;;;;;;;;;;5035417;28;20064;-45
2021/04/14 10:24:12;;;;;;;1.65;1.23;;;;;;;;;;5035164;28;20049;-46
2021/04/14 10:26:47;;;;;;;3.92;1.13;;;;;;;;;;5035516;28;20029;-45
2021/04/14 10:29:15;;;;;;;1.80;1.38;;;;;;;;;;5035438;28;20021;-46
2021/04/14 10:31:42;;;;;;;2.90;1.05;;;;;;;;;;5035223;28;20021;-45
2021/04/14 10:34:24;;;;;;;1.80;1.00;;;;;;;;;;5034955;28;20026;-45
2021/04/14 10:36:52;;;;;;;2.78;1.17;;;;;;;;;;5034404;28;20420;-45
2021/04/14 10:39:30;;;;;;;1.95;0.98;;;;;;;;;;5035210;28;20026;-45
2021/04/14 10:41:58;;;;;;;3.15;1.33;;;;;;;;;;5033829;28;20079;-43
2021/04/14 10:44:28;;;;;;;2.10;1.08;;;;;;;;;;5034876;28;20104;-45
2021/04/14 10:47:03;;;;;;;2.55;1.05;;;;;;;;;;5035081;28;20079;-45
2021/04/14 10:49:31;;;;;;;2.10;1.17;;;;;;;;;;5035013;28;20021;-43
2021/04/14 10:52:01;;;;;;;2.20;1.17;;;;;;;;;;5034843;28;20032;-44
2021/04/14 10:54:30;;;;;;;1.83;1.08;;;;;;;;;;5034745;28;20473;-45
2021/04/14 10:57:20;;;;;;;3.42;1.40;;;;;;;;;;5034872;28;20040;-45
2021/04/14 10:59:48;;;;;;;1.10;0.95;;;;;;;;;;5034762;28;20040;-45
2021/04/14 11:02:19;;;;;;;1.77;1.27;;;;;;;;;;5034744;28;20026;-44
2021/04/14 11:04:47;;;;;;;4.32;1.17;;;;;;;;;;5034184;28;20045;-44
2021/04/14 11:07:21;;;;;;;2.38;1.10;;;;;;;;;;5033255;28;20030;-44
2021/04/14 11:09:49;;;;;;;2.22;1.30;;;;;;;;;;5034614;28;20032;-45
2021/04/14 11:12:20;;;;;;;1.92;1.10;;;;;;;;;;5034387;28;20029;-45
2021/04/14 11:14:49;;;;;;;1.85;1.20;;;;;;;;;;5034401;28;20029;-45
2021/04/14 11:17:27;;;;;;;2.25;0.98;;;;;;;;;;5034341;28;20480;-44
2021/04/14 11:19:54;;;;;;;2.03;0.90;;;;;;;;;;5034457;28;20029;-44
2021/04/14 11:22:22;;;;;;;1.70;1.00;;;;;;;;;;5034317;28;20075;-42
2021/04/14 11:24:51;;;;;;;5.28;1.15;;;;;;;;;;5034245;28;20049;-43
2021/04/14 11:27:28;;;;;;;2.63;1.30;;;;;;;;;;5034203;28;20476;-45
2021/04/14 11:30:10;;;;;;;1.50;1.08;;;;;;;;;;5034286;28;20080;-42
2021/04/14 11:32:37;;;;;;;3.95;1.10;;;;;;;;;;5034139;28;20029;-45
2021/04/14 11:35:08;;;;;;;2.03;1.15;;;;;;;;;;5033724;28;20113;-43
2021/04/14 11:37:38;;;;;;;1.47;1.13;;;;;;;;;;5034027;28;20419;-44
2021/04/14 11:40:06;;;;;;;4.28;1.55;;;;;;;;;;5034039;28;20100;-44
2021/04/14 11:42:47;;;;;;;2.40;1.17;;;;;;;;;;5032807;28;20022;-45
2021/04/14 11:45:23;;;;;;;1.40;1.10;;;;;;;;;;5033847;28;20025;-43
2021/04/14 11:47:50;;;;;;;2.83;1.00;;;;;;;;;;5032616;28;20018;-45
2021/04/14 11:50:22;;;;;;;3.03;1.27;;;;;;;;;;5033776;28;20075;-44
2021/04/14 11:52:49;;;;;;;2.22;1.00;;;;;;;;;;5033713;28;20022;-43
2021/04/14 11:55:22;;;;;;;2.22;1.10;;;;;;;;;;5033243;28;20453;-42
2021/04/14 11:58:00;;;;;;;1.83;0.80;;;;;;;;;;5024720;28;20469;-43
2021/04/14 12:00:30;;;;;;;1.65;0.90;;;;;;;;;;5018991;28;20051;-45
2021/04/14 12:03:00;;;;;;;2.05;1.10;;;;;;;;;;5013819;28;20014;-45
2021/04/14 12:05:27;;;;;;;2.72;0.80;;;;;;;;;;5017149;28;20037;-46
2021/04/14 12:07:54;;;;;;;2.55;0.82;;;;;;;;;;5032737;28;20448;-46
2021/04/14 12:10:22;;;;;;;4.30;0.90;;;;;;;;;;5032788;28;20113;-49
2021/04/14 12:12:49;;;;;;;2.75;1.00;;;;;;;;;;5020184;28;20025;-46
2021/04/14 12:15:17;;;;;;;2.03;0.90;;;;;;;;;;5018408;28;20029;-44
2021/04/14 12:17:44;;;;;;;3.22;0.88;;;;;;;;;;5015706;28;20030;-47
2021/04/14 12:20:11;;;;;;;1.90;0.88;;;;;;;;;;5012264;28;20057;-47
2021/04/14 12:22:38;;;;;;;2.35;1.02;;;;;;;;;;5021450;28;20030;-48
2021/04/14 12:25:05;;;;;;;4.10;0.93;;;;;;;;;;5022291;28;20034;-48
2021/04/14 12:27:33;;;;;;;2.03;1.10;;;;;;;;;;5029284;28;20049;-43
2021/04/14 12:30:01;;;;;;;5.05;1.02;;;;;;;;;;5021023;28;20753;-44
2021/04/14 12:32:28;;;;;;;2.38;1.13;;;;;;;;;;5021763;28;20044;-45
2021/04/14 12:34:55;;;;;;;4.00;1.10;;;;;;;;;;5026829;28;20133;-44
2021/04/14 12:37:22;;;;;;;1.83;0.85;;;;;;;;;;5020148;28;20392;-46
2021/04/14 12:39:49;;;;;;;3.75;1.20;;;;;;;;;;5020984;28;20025;-46
2021/04/14 12:42:17;;;;;;;4.43;0.90;;;;;;;;;;5022878;28;20032;-46
2021/04/14 12:44:44;;;;;;;3.20;1.10;;;;;;;;;;5029414;28;20109;-45
2021/04/14 12:47:15;;;;;;;2.20;1.20;;;;;;;;;;5021651;28;20021;-45
2021/04/14 12:49:42;;;;;;;6.25;1.10;;;;;;;;;;5031217;28;20017;-47
2021/04/14 12:52:28;;;;;;;4.30;1.00;;;;;;;;;;5032217;28;20026;-45
2021/04/14 12:54:56;;;;;;;2.53;0.95;;;;;;;;;;5029542;28;20144;-47
2021/04/14 12:57:25;;;;;;;5.03;1.20;;;;;;;;;;5026090;28;20049;-45
2021/04/14 12:59:56;;;;;;;7.45;1.38;;;;;;;;;;5019927;28;20433;-49
2021/04/14 13:02:30;;;;;;;5.63;1.20;;;;;;;;;;5019863;28;20023;-46
2021/04/14 13:04:59;;;;;;;3.97;1.20;;;;;;;;;;5018649;28;20046;-46
2021/04/14 13:07:33;;;;;;;4.28;1.17;;;;;;;;;;5028732;28;20030;-44
2021/04/14 13:10:02;;;;;;;6.00;1.20;;;;;;;;;;5031205;28;20024;-47
2021/04/14 13:12:34;;;;;;;5.82;1.10;;;;;;;;;;5029643;28;20025;-49
2021/04/14 13:15:01;;;;;;;3.43;1.10;;;;;;;;;;5032083;28;20025;-46
2021/04/14 13:17:31;;;;;;;6.32;1.00;;;;;;;;;;5032027;28;20092;-47
2021/04/14 13:20:00;;;;;;;4.47;1.45;;;;;;;;;;5017348;28;20036;-48
2021/04/14 13:22:27;;;;;;;3.00;1.48;;;;;;;;;;5024526;28;20049;-44
2021/04/14 13:25:05;;;;;;;2.10;0.93;;;;;;;;;;5029826;28;20064;-46
2021/04/14 13:27:40;;;;;;;2.05;1.05;;;;;;;;;;5030418;28;20129;-49
2021/04/14 13:30:27;;;;;;;3.25;1.17;;;;;;;;;;5025204;28;20346;-47
2021/04/14 13:33:13;;;;;;;5.45;1.20;;;;;;;;;;5019414;28;20392;-47
2021/04/14 13:35:40;;;;;;;9.43;1.13;;;;;;;;;;5028655;28;20038;-43
2021/04/14 13:38:25;;;;;;;4.43;1.00;;;;;;;;;;5023177;28;20420;-49
2021/04/14 13:40:55;;;;;;;2.88;1.08;;;;;;;;;;5029112;28;20020;-47
2021/04/14 13:43:34;;;;;;;10.38;1.05;;;;;;;;;;5030988;28;20026;-47
2021/04/14 13:46:01;;;;;;;12.00;1.95;;;;;;;;;;5030872;28;20014;-47
2021/04/14 13:48:34;;;;;;;4.32;0.88;;;;;;;;;;5029908;28;20022;-47
2021/04/14 13:51:03;;;;;;;2.83;0.90;;;;;;;;;;5031336;28;20528;-47
2021/04/14 13:53:33;;;;;;;6.05;1.00;;;;;;;;;;5031190;28;20040;-47
2021/04/14 13:56:02;;;;;;;4.28;1.00;;;;;;;;;;5030796;28;20562;-47
2021/04/14 13:58:36;;;;;;;4.53;1.10;;;;;;;;;;5030650;28;20432;-47
2021/04/14 14:01:04;;;;;;;2.42;0.80;;;;;;;;;;5030156;28;20128;-47
2021/04/14 14:03:32;;;;;;;6.13;1.38;;;;;;;;;;5031042;28;20068;-47
2021/04/14 14:06:01;;;;;;;5.07;1.13;;;;;;;;;;5064003;28;20087;-47
2021/04/14 14:08:34;;;;;;;2.22;0.82;;;;;;;;;;5071383;28;20029;-47
2021/04/14 14:11:00;;;;;;;;;;;;;;;;;;5070548;28;20480;-47
2021/04/14 14:13:33;;;;;;;4.28;1.20;;;;;;;;;;5074267;28;19904;-46
2021/04/14 14:16:09;;;;;;;5.75;1.15;;;;;;;;;;5074733;28;20036;-47
2021/04/14 14:18:36;;;;;;;6.10;1.25;;;;;;;;;;5074688;28;20104;-47
2021/04/14 14:21:06;;;;;;;6.43;1.35;;;;;;;;;;5074677;28;20038;-47
2021/04/14 14:23:38;;;;;;;5.65;1.25;;;;;;;;;;5071997;28;20032;-44
2021/04/14 14:26:05;;;;;;;6.38;1.30;;;;;;;;;;5074155;28;20035;-44
2021/04/14 14:28:33;;;;;;;5.80;1.20;;;;;;;;;;5073464;28;20092;-44
2021/04/14 14:31:02;;;;;;;5.05;1.45;;;;;;;;;;5074703;28;20029;-46
2021/04/14 14:33:32;;;;;;;8.70;1.15;;;;;;;;;;5075055;28;20017;-46
2021/04/14 14:36:09;;;;;;;4.70;1.27;;;;;;;;;;5074712;28;20364;-45
2021/04/14 14:38:47;;;;;;;5.38;1.35;;;;;;;;;;5057093;28;20033;-44
2021/04/14 14:41:16;;;;;;;7.13;1.02;;;;;;;;;;5074558;28;20032;-44
2021/04/14 14:43:44;;;;;;;6.38;1.10;;;;;;;;;;5074703;28;20663;-44
2021/04/14 14:46:21;;;;;;;5.50;1.23;;;;;;;;;;5074899;28;20108;-46
2021/04/14 14:48:51;;;;;;;8.93;1.25;;;;;;;;;;5074727;28;20029;-44
2021/04/14 14:51:23;;;;;;;4.70;1.10;;;;;;;;;;5074402;28;20033;-41
2021/04/14 14:53:52;;;;;;;3.67;1.40;;;;;;;;;;5074027;28;20103;-44
2021/04/14 14:56:22;;;;;;;4.78;1.02;;;;;;;;;;5071843;28;20028;-45
2021/04/14 14:58:49;;;;;;;6.68;1.58;;;;;;;;;;5073893;28;20077;-45